Detall de PIREP

Printer-friendly versionPDF version

[2012/03/17 15:48:00]
Flight IATA:CT1006
Pilot Number:026
Company ICAO:CAT
Aircraft Type:DC85/A
PAX:132
Departing Airport: LEAL
Destination Airport: LICJ
Alternate Airport:LICT
Online: VATSIM
Route:MITOS/N0330F260 UN851 MHN UM603 MORSS/N0330F330 UM603 ARSIK UM731 TEKSA UM732 CAR UM871 KAPIL
Flight Level:F330
No Slew and time accel
No pause
Crash detect
Detect pilot in Cockpit between each 30 and 45 minutes
15:48 Zero fuel Weight: 178365 Lbs, Fuel Weight: 36007 Lbs
15:48 VATSIM:LEAL 171530Z 18011KT 140V240 CAVOK 19/09 Q1021 NOSIG
15:48 VATSIM:LICJ 171520Z 05007KT CAVOK 17/10 Q1028
15:49 VOICE CATALONIAN / ALMOGAVERS ROUTE
15:57 Parking Brakes off
16:02 Take-off
16:02 Take off Weight: 213380 Lbs
16:02 Wind: 146º @ 011 Knots Heading: 101º
16:02 POS N38º 16´ 52´´ W000º 33´ 10´´
16:02 Gear Up: 153 Knots
16:02 Flaps:2 at 153 Knots
16:03 Flaps:1 at 143 Knots
16:04 Flaps:0 at 166 Knots
16:17 Wind:210º@036 Knots Heading: 072º Ground Speed: 421 Knots Altitude 29832 ft
16:32 Wind:194º@032 Knots Heading: 068º Ground Speed: 504 Knots Altitude 32273 ft
16:39 TOC
16:39 Fuel Weight: 24849 Lb
16:47 Wind:165º@019 Knots Heading: 081º Ground Speed: 490 Knots Altitude 33284 ft
17:02 Wind:205º@028 Knots Heading: 167º Ground Speed: 467 Knots Altitude 33333 ft
17:17 Wind:159º@007 Knots Heading: 109º Ground Speed: 489 Knots Altitude 33320 ft
17:24 TOD
17:24 Fuel Weight: 13101 Lb
17:30 Flaps:5 at 320 Knots
17:30 Flaps:0 at 319 Knots
17:32 Wind:141º@029 Knots Heading: 089º Ground Speed: 374 Knots Altitude 19110 ft
17:39 Gear Down: 245 Knots
17:41 Flaps:1 at 174 Knots
17:42 Flaps:2 at 178 Knots
17:42 Flaps:3 at 166 Knots
17:42 Flaps:4 at 151 Knots
17:43 Flaps:5 at 142 Knots
17:43 TouchDown:Rate -266 ft/min Speed: 124 Knots
17:43 VATSIM:LICJ171720Z VRB01KT CAVOK 15/11 Q1027
17:44 Land
17:44 Wind:152º@010 Knots
17:44 Heading: 067º
17:44 Flight Duration: 01:42
17:44 Landing Weight: 189467 Lbs
17:44 POS N38º 10´ 42´´ E013º 05´ 56´´
17:49 Parking brakes on
17:49 Block to Block Duration: 01:52
17:49 Final Fuel: 10637 Lbls
17:49 Spent Fuel: 25370 Lbls
17:49 Flight Length: 740 NM
17:49 TOD Land Length: 105 NM

Exportar CSV

Powered by Drupal - Modified by Danger4k